Time;durP1;ratioP1;P1;durP2;ratioP2;P2;SDS_P1;SDS_P2;PMS_P1;PMS_P2;Temp;Humidity;BMP_temperature;BMP_pressure;BME280_temperature;BME280_humidity;BME280_pressure;Samples;Min_cycle;Max_cycle;Signal;HPM_P1;HPM_P2
2022/04/09 00:00:16;;;;;;;;;;;;;;;17.82;53.13;99555.78;2083039;28;19993;-46
2022/04/09 00:01:16;;;;;;;;;;;;;;;17.82;53.15;99558.50;2084610;28;20911;-46
2022/04/09 00:02:16;;;;;;;;;;;;;;;17.81;53.41;99551.34;2082447;28;19917;-46
2022/04/09 00:03:17;;;;;;;;;;;;;;;17.82;53.42;99549.47;2084133;28;19925;-47
2022/04/09 00:04:17;;;;;;;;;;;;;;;17.81;53.30;99548.63;2082187;28;20015;-45
2022/04/09 00:05:17;;;;;;;;;;;;;;;17.81;53.44;99536.84;2077343;28;19986;-46
2022/04/09 00:06:18;;;;;;;;;;;;;;;17.81;53.21;99543.19;2076674;28;20523;-46
2022/04/09 00:07:18;;;;;;;;;;;;;;;17.81;53.26;99543.19;2078017;28;19921;-45
2022/04/09 00:08:18;;;;;;;;;;;;;;;17.80;53.46;99546.91;2084439;28;19928;-46
2022/04/09 00:09:19;;;;;;;;;;;;;;;17.80;53.09;99541.44;2079284;28;20393;-46
2022/04/09 00:10:19;;;;;;;;;;;;;;;17.80;53.42;99544.19;2079613;28;20648;-46
2022/04/09 00:11:19;;;;;;;;;;;;;;;17.79;53.35;99543.28;2083498;28;19997;-45
2022/04/09 00:12:19;;;;;;;;;;;;;;;17.80;53.25;99552.34;2083909;28;19927;-46
2022/04/09 00:13:20;;;;;;;;;;;;;;;17.79;53.37;99550.63;2083339;28;19928;-46
2022/04/09 00:14:20;;;;;;;;;;;;;;;17.78;53.28;99549.78;2082834;28;19928;-45
2022/04/09 00:15:20;;;;;;;;;;;;;;;17.78;53.24;99544.31;2083380;28;19921;-46
2022/04/09 00:16:21;;;;;;;;;;;;;;;17.79;53.36;99542.44;2082400;28;19935;-46
2022/04/09 00:17:21;;;;;;;;;;;;;;;17.79;53.24;99554.19;2083360;28;19933;-47
2022/04/09 00:18:21;;;;;;;;;;;;;;;17.78;53.45;99554.34;2081345;28;19928;-47
2022/04/09 00:19:22;;;;;;;;;;;;;;;17.78;53.39;99551.63;2081478;28;20393;-46
2022/04/09 00:20:22;;;;;;;;;;;;;;;17.79;53.38;99566.97;2081172;28;19928;-46
2022/04/09 00:21:22;;;;;;;;;;;;;;;17.78;53.47;99562.53;2083075;28;20378;-48
2022/04/09 00:22:22;;;;;;;;;;;;;;;17.78;53.19;99563.41;2081297;28;19943;-47
2022/04/09 00:23:23;;;;;;;;;;;;;;;17.78;53.33;99554.34;2081133;28;19924;-46
2022/04/09 00:24:23;;;;;;;;;;;;;;;17.78;53.24;99554.34;2083795;28;20309;-46
2022/04/09 00:25:24;;;;;;;;;;;;;;;17.79;53.19;99561.53;2081468;28;19912;-46
2022/04/09 00:26:24;;;;;;;;;;;;;;;17.78;53.52;99559.78;2086301;28;20586;-47
2022/04/09 00:27:24;;;;;;;;;;;;;;;17.77;53.36;99564.41;2084558;28;19944;-46
2022/04/09 00:28:25;;;;;;;;;;;;;;;17.77;53.27;99558.09;2081454;28;20079;-47
2022/04/09 00:29:25;;;;;;;;;;;;;;;17.77;53.13;99564.41;2082452;28;20232;-46
2022/04/09 00:30:25;;;;;;;;;;;;;;;17.78;53.09;99566.13;2082763;28;19977;-48
2022/04/09 00:31:26;;;;;;;;;;;;;;;17.78;53.43;99557.06;2079618;28;20630;-46
2022/04/09 00:32:26;;;;;;;;;;;;;;;17.77;53.21;99558.94;2081083;28;20018;-47
2022/04/09 00:33:26;;;;;;;;;;;;;;;17.77;53.35;99563.53;2069231;28;20227;-46
2022/04/09 00:34:27;;;;;;;;;;;;;;;17.77;53.19;99563.53;2083452;28;19941;-48
2022/04/09 00:35:27;;;;;;;;;;;;;;;17.76;53.33;99561.81;2079860;28;20027;-46
2022/04/09 00:36:27;;;;;;;;;;;;;;;17.76;53.34;99561.81;2081289;28;20461;-46
2022/04/09 00:37:29;;;;;;;;;;;;;;;17.75;53.24;99554.66;2080431;28;19917;-46
2022/04/09 00:38:29;;;;;;;;;;;;;;;17.76;53.08;99556.34;2078884;28;19992;-47
2022/04/09 00:39:30;;;;;;;;;;;;;;;17.75;53.26;99565.56;2083739;28;20191;-47
2022/04/09 00:40:30;;;;;;;;;;;;;;;17.74;53.18;99564.72;2083348;28;19921;-47
2022/04/09 00:41:30;;;;;;;;;;;;;;;17.75;53.29;99565.56;2078623;28;19955;-47
2022/04/09 00:42:31;;;;;;;;;;;;;;;17.75;53.30;99565.56;2082412;28;19916;-46
2022/04/09 00:43:31;;;;;;;;;;;;;;;17.75;53.28;99560.97;2077896;28;19970;-46
2022/04/09 00:44:31;;;;;;;;;;;;;;;17.74;53.33;99564.72;2083720;28;20758;-46
2022/04/09 00:45:32;;;;;;;;;;;;;;;17.74;53.06;99564.72;2080965;28;19920;-46
2022/04/09 00:46:32;;;;;;;;;;;;;;;17.75;53.30;99576.47;2082314;28;19912;-46
2022/04/09 00:47:33;;;;;;;;;;;;;;;17.74;53.31;99563.84;2083296;28;19917;-47
2022/04/09 00:48:37;;;;;;;;;;;;;;;17.75;53.28;99560.09;2082307;28;19919;-49
2022/04/09 00:49:38;;;;;;;;;;;;;;;17.75;53.16;99554.66;2078539;28;19931;-47
2022/04/09 00:50:38;;;;;;;;;;;;;;;17.76;53.28;99557.25;2095136;28;20366;-46
2022/04/09 00:51:40;;;;;;;;;;;;;;;17.76;53.08;99556.34;2097278;28;20341;-47
2022/04/09 00:52:46;;;;;;;;;;;;;;;17.77;53.27;99563.53;2083278;28;20023;-47
2022/04/09 00:53:46;;;;;;;;;;;;;;;17.76;53.21;99559.09;2081859;28;19920;-46
2022/04/09 00:54:48;;;;;;;;;;;;;;;17.78;53.28;99554.34;2079678;28;20176;-47
2022/04/09 00:57:09;;;;;;;;;;;;;;;17.80;53.21;99560.53;2076142;28;20366;-47
2022/04/09 00:58:17;;;;;;;;;;;;;;;17.79;53.19;99561.53;2083152;28;20334;-46
2022/04/09 00:59:21;;;;;;;;;;;;;;;17.80;52.96;99560.53;2081217;28;20023;-47
2022/04/09 01:00:21;;;;;;;;;;;;;;;17.80;53.03;99563.25;2080064;28;19921;-46
2022/04/09 01:01:32;;;;;;;;;;;;;;;17.81;53.17;99570.44;2079605;28;19923;-47
2022/04/09 01:02:33;;;;;;;;;;;;;;;17.80;53.09;99568.72;2078610;28;19916;-47
2022/04/09 01:03:33;;;;;;;;;;;;;;;17.80;53.26;99568.72;2079221;28;19951;-47
2022/04/09 01:04:34;;;;;;;;;;;;;;;17.79;53.29;99564.25;2081891;28;19974;-47
2022/04/09 01:05:35;;;;;;;;;;;;;;;17.79;53.16;99567.81;2085624;28;19923;-49
2022/04/09 01:06:35;;;;;;;;;;;;;;;17.79;53.30;99567.81;2081581;28;19956;-46
2022/04/09 01:07:36;;;;;;;;;;;;;;;17.78;53.11;99555.22;2082329;28;19944;-47
2022/04/09 01:08:36;;;;;;;;;;;;;;;17.78;53.17;99565.25;2081666;28;19961;-46
2022/04/09 01:09:36;;;;;;;;;;;;;;;17.79;53.02;99561.53;2083528;28;20230;-47
2022/04/09 01:10:37;;;;;;;;;;;;;;;17.79;53.03;99569.69;2080444;28;19917;-47
2022/04/09 01:11:39;;;;;;;;;;;;;;;17.79;53.09;99569.69;2084335;28;19990;-47
2022/04/09 01:12:39;;;;;;;;;;;;;;;17.78;53.04;99570.69;2079681;28;19917;-47
2022/04/09 01:13:40;;;;;;;;;;;;;;;17.78;53.29;99568.84;2083498;28;19931;-47
2022/04/09 01:14:41;;;;;;;;;;;;;;;17.78;53.21;99567.97;2079863;28;19924;-46
2022/04/09 01:15:41;;;;;;;;;;;;;;;17.78;53.07;99576.16;2079446;28;19916;-46
2022/04/09 01:16:41;;;;;;;;;;;;;;;17.77;53.05;99574.44;2081130;28;20176;-46
2022/04/09 01:17:42;;;;;;;;;;;;;;;17.77;53.10;99566.28;2082853;28;19970;-47
2022/04/09 01:18:43;;;;;;;;;;;;;;;17.78;53.20;99570.69;2082741;28;20258;-47
2022/04/09 01:19:43;;;;;;;;;;;;;;;17.78;53.07;99581.59;2078990;28;19913;-46
2022/04/09 01:20:44;;;;;;;;;;;;;;;17.78;53.11;99578.88;2080795;28;20455;-47
2022/04/09 01:21:44;;;;;;;;;;;;;;;17.78;52.97;99587.06;2082367;28;19915;-47
2022/04/09 01:22:44;;;;;;;;;;;;;;;17.78;53.09;99581.59;2098796;28;20200;-46
2022/04/09 01:23:44;;;;;;;;;;;;;;;17.78;52.92;99578.88;2096894;28;20201;-47
2022/04/09 01:24:45;;;;;;;;;;;;;;;17.77;53.18;99580.75;2081851;28;19947;-46
2022/04/09 01:25:45;;;;;;;;;;;;;;;17.78;53.17;99584.31;2084281;28;20716;-46
2022/04/09 01:26:45;;;;;;;;;;;;;;;17.78;53.19;99585.22;2078633;28;19981;-47
2022/04/09 01:27:47;;;;;;;;;;;;;;;17.77;53.27;99585.34;2082110;28;19920;-47
2022/04/09 01:28:48;;;;;;;;;;;;;;;17.78;53.10;99587.06;2081503;28;19990;-47
2022/04/09 01:29:48;;;;;;;;;;;;;;;17.77;53.27;99586.19;2080027;28;19931;-47
2022/04/09 01:30:48;;;;;;;;;;;;;;;17.77;53.21;99591.66;2084545;28;20685;-47
2022/04/09 01:31:49;;;;;;;;;;;;;;;17.78;53.14;99585.22;2080742;28;20281;-47
2022/04/09 01:32:49;;;;;;;;;;;;;;;17.76;53.23;99583.63;2083392;28;19930;-46
2022/04/09 01:33:49;;;;;;;;;;;;;;;17.77;53.07;99591.66;2080258;28;20015;-46
2022/04/09 01:34:51;;;;;;;;;;;;;;;17.77;53.02;99590.81;2082613;28;20274;-47
2022/04/09 01:35:52;;;;;;;;;;;;;;;17.76;53.16;99589.06;2077651;28;19921;-46
2022/04/09 01:36:52;;;;;;;;;;;;;;;17.76;52.97;99589.06;2078149;28;20385;-46
2022/04/09 01:37:52;;;;;;;;;;;;;;;17.76;53.06;99591.78;2082723;28;19917;-48
2022/04/09 01:38:53;;;;;;;;;;;;;;;17.77;53.02;99596.25;2082409;28;19963;-47
2022/04/09 01:39:53;;;;;;;;;;;;;;;17.75;52.97;99588.22;2079332;28;20004;-46
2022/04/09 01:40:56;;;;;;;;;;;;;;;17.76;52.97;99589.06;2079692;28;19924;-47
2022/04/09 01:41:57;;;;;;;;;;;;;;;17.74;53.22;99580.22;2082249;28;19959;-48
2022/04/09 01:42:57;;;;;;;;;;;;;;;17.74;53.18;99585.66;2081710;28;19920;-47
2022/04/09 01:43:57;;;;;;;;;;;;;;;17.75;53.12;99587.38;2081254;28;20225;-46
2022/04/09 01:44:58;;;;;;;;;;;;;;;17.74;53.21;99580.22;2081418;28;19952;-47
2022/04/09 01:45:58;;;;;;;;;;;;;;;17.73;53.18;99583.94;2083838;28;19956;-47
2022/04/09 01:46:58;;;;;;;;;;;;;;;17.73;53.27;99586.66;2086255;28;19955;-46
2022/04/09 01:47:59;;;;;;;;;;;;;;;17.74;52.98;99580.22;2082610;28;19931;-47
2022/04/09 01:48:59;;;;;;;;;;;;;;;17.73;53.30;99581.22;2081572;28;20332;-47
2022/04/09 01:50:00;;;;;;;;;;;;;;;17.73;53.09;99584.78;2082217;28;19989;-48
2022/04/09 01:51:00;;;;;;;;;;;;;;;17.74;53.17;99585.66;2083519;28;19904;-47
2022/04/09 01:52:00;;;;;;;;;;;;;;;17.74;53.26;99580.22;2080204;28;20151;-47
2022/04/09 01:53:01;;;;;;;;;;;;;;;17.73;53.00;99583.94;2081757;28;19915;-46
2022/04/09 01:54:01;;;;;;;;;;;;;;;17.73;53.06;99583.94;2079719;28;20294;-48
2022/04/09 01:55:01;;;;;;;;;;;;;;;17.74;53.26;99591.13;2082880;28;19923;-47
2022/04/09 01:56:02;;;;;;;;;;;;;;;17.73;52.92;99584.78;2076824;28;19964;-46
2022/04/09 01:57:02;;;;;;;;;;;;;;;17.73;53.18;99589.38;2078887;28;19923;-47
2022/04/09 01:58:03;;;;;;;;;;;;;;;17.73;53.10;99586.66;2082674;28;19932;-48
2022/04/09 01:59:03;;;;;;;;;;;;;;;17.74;53.00;99585.66;2078882;28;19925;-46
2022/04/09 02:00:05;;;;;;;;;;;;;;;17.73;53.25;99586.66;2083727;28;20377;-47
2022/04/09 02:01:06;;;;;;;;;;;;;;;17.73;53.11;99589.38;2079471;28;20383;-46
2022/04/09 02:02:08;;;;;;;;;;;;;;;17.73;53.24;99589.38;2079866;28;19917;-47
2022/04/09 02:03:08;;;;;;;;;;;;;;;17.73;53.31;99594.84;2077604;28;19921;-46
2022/04/09 02:04:08;;;;;;;;;;;;;;;17.72;53.09;99590.41;2079182;28;19916;-45
2022/04/09 02:05:11;;;;;;;;;;;;;;;17.72;53.18;99590.41;2085007;28;20349;-46
2022/04/09 02:06:11;;;;;;;;;;;;;;;17.72;53.11;99591.25;2078835;28;19923;-46
2022/04/09 02:07:13;;;;;;;;;;;;;;;17.72;53.21;99593.13;2080160;28;19932;-47
2022/04/09 02:08:14;;;;;;;;;;;;;;;17.71;53.24;99586.84;2083602;28;19966;-47
2022/04/09 02:09:14;;;;;;;;;;;;;;;17.71;53.00;99591.41;2079624;28;19925;-46
2022/04/09 02:10:15;;;;;;;;;;;;;;;17.71;53.04;99591.41;2081342;28;19922;-51
2022/04/09 02:11:16;;;;;;;;;;;;;;;17.70;53.20;99592.44;2087384;28;20298;-46
2022/04/09 02:12:16;;;;;;;;;;;;;;;17.70;53.12;99590.56;2082785;28;19927;-46
2022/04/09 02:13:19;;;;;;;;;;;;;;;17.71;53.19;99591.41;2084481;28;20802;-49
2022/04/09 02:14:19;;;;;;;;;;;;;;;17.70;53.10;99592.44;2079169;28;20381;-46
2022/04/09 02:15:20;;;;;;;;;;;;;;;17.70;52.96;99595.16;2083677;28;19924;-46
2022/04/09 02:16:20;;;;;;;;;;;;;;;17.70;53.26;99590.56;2078859;28;20630;-46
2022/04/09 02:17:20;;;;;;;;;;;;;;;17.70;53.35;99589.69;2077670;28;20227;-46
2022/04/09 02:18:21;;;;;;;;;;;;;;;17.69;52.98;99588.00;2078720;28;20467;-48
2022/04/09 02:19:21;;;;;;;;;;;;;;;17.68;53.12;99592.56;2083538;28;19921;-46
2022/04/09 02:20:21;;;;;;;;;;;;;;;17.68;53.19;99586.25;2081775;28;19913;-46
2022/04/09 02:21:22;;;;;;;;;;;;;;;17.69;53.14;99590.72;2085094;28;20351;-47
2022/04/09 02:22:23;;;;;;;;;;;;;;;17.69;53.20;99588.00;2077016;28;20364;-49
2022/04/09 02:23:23;;;;;;;;;;;;;;;17.69;53.21;99593.44;2082217;28;19921;-47
2022/04/09 02:24:24;;;;;;;;;;;;;;;17.68;53.04;99592.56;2080628;28;20354;-46
2022/04/09 02:25:24;;;;;;;;;;;;;;;17.68;53.15;99592.56;2085908;28;20311;-46
2022/04/09 02:26:24;;;;;;;;;;;;;;;17.68;53.18;99591.72;2083921;28;19927;-46
2022/04/09 02:27:25;;;;;;;;;;;;;;;17.69;53.21;99593.44;2083468;28;19916;-47
2022/04/09 02:28:26;;;;;;;;;;;;;;;17.68;53.08;99597.16;2084073;28;19954;-46
2022/04/09 02:29:26;;;;;;;;;;;;;;;17.69;53.26;99590.72;2084171;28;20215;-46
2022/04/09 02:30:26;;;;;;;;;;;;;;;17.69;53.22;99593.44;2084302;28;19927;-48
2022/04/09 02:31:27;;;;;;;;;;;;;;;17.68;53.12;99587.13;2085745;28;19927;-47
2022/04/09 02:32:27;;;;;;;;;;;;;;;17.69;53.09;99585.28;2082804;28;19916;-47
2022/04/09 02:33:28;;;;;;;;;;;;;;;17.68;53.28;99586.25;2075962;28;19928;-47
2022/04/09 02:34:28;;;;;;;;;;;;;;;17.68;53.19;99592.56;2076224;28;20343;-46
2022/04/09 02:35:29;;;;;;;;;;;;;;;17.68;53.07;99586.25;2079826;28;19927;-46
2022/04/09 02:36:31;;;;;;;;;;;;;;;17.68;53.22;99586.25;2082588;28;19917;-47
2022/04/09 02:37:32;;;;;;;;;;;;;;;17.67;53.25;99584.56;2082894;28;19920;-46
2022/04/09 02:38:32;;;;;;;;;;;;;;;17.67;53.04;99590.00;2083212;28;20382;-47
2022/04/09 02:39:32;;;;;;;;;;;;;;;17.66;53.24;99583.69;2092026;28;19920;-47
2022/04/09 02:40:33;;;;;;;;;;;;;;;17.67;53.15;99590.00;2096648;27;19923;-46
2022/04/09 02:41:33;;;;;;;;;;;;;;;17.67;53.14;99595.47;2085144;28;19916;-49
2022/04/09 02:42:37;;;;;;;;;;;;;;;17.66;53.05;99593.72;2082883;28;20048;-47
2022/04/09 02:43:38;;;;;;;;;;;;;;;17.66;53.05;99591.84;2083217;28;20409;-47
2022/04/09 02:44:39;;;;;;;;;;;;;;;17.65;53.16;99592.88;2080626;28;19923;-47
2022/04/09 02:45:40;;;;;;;;;;;;;;;17.65;53.39;99592.03;2084638;28;19930;-46
2022/04/09 02:46:40;;;;;;;;;;;;;;;17.65;53.36;99594.75;2081120;28;20019;-46
2022/04/09 02:47:41;;;;;;;;;;;;;;;17.66;53.06;99589.13;2082198;28;19926;-46
2022/04/09 02:48:41;;;;;;;;;;;;;;;17.63;53.10;99594.91;2082713;28;19970;-46
2022/04/09 02:49:41;;;;;;;;;;;;;;;17.63;53.36;99594.03;2084182;28;19981;-47
2022/04/09 02:50:41;;;;;;;;;;;;;;;17.63;53.06;99589.44;2084385;28;19930;-46
2022/04/09 02:51:42;;;;;;;;;;;;;;;17.64;53.10;99587.56;2081615;28;20232;-47
2022/04/09 02:52:43;;;;;;;;;;;;;;;17.65;53.24;99592.03;2081634;28;19920;-46
2022/04/09 02:53:44;;;;;;;;;;;;;;;17.63;53.19;99588.59;2083083;28;20014;-47
2022/04/09 02:54:44;;;;;;;;;;;;;;;17.65;53.18;99594.75;2080146;28;19979;-46
2022/04/09 02:55:45;;;;;;;;;;;;;;;17.63;53.17;99594.91;2086553;28;21281;-47
2022/04/09 02:56:46;;;;;;;;;;;;;;;17.65;53.17;99592.03;2082225;28;19924;-50
2022/04/09 02:57:47;;;;;;;;;;;;;;;17.63;53.20;99586.72;2082752;28;20007;-46
2022/04/09 02:58:47;;;;;;;;;;;;;;;17.65;53.07;99589.31;2083669;28;20331;-46
2022/04/09 02:59:48;;;;;;;;;;;;;;;17.65;53.01;99590.16;2084627;28;19912;-46
2022/04/09 03:00:49;;;;;;;;;;;;;;;17.64;53.16;99587.56;2083939;28;19973;-46
2022/04/09 03:01:49;;;;;;;;;;;;;;;17.66;53.13;99594.59;2082690;28;19920;-47
2022/04/09 03:02:49;;;;;;;;;;;;;;;17.66;53.15;99585.56;2101065;28;19919;-48
2022/04/09 03:03:50;;;;;;;;;;;;;;;17.67;53.21;99590.00;2099651;28;20116;-48
2022/04/09 03:04:52;;;;;;;;;;;;;;;17.66;53.07;99589.13;2085561;28;19967;-48
2022/04/09 03:05:52;;;;;;;;;;;;;;;17.67;53.23;99595.47;2083271;28;19927;-47
2022/04/09 03:06:52;;;;;;;;;;;;;;;17.68;53.18;99597.16;2080654;28;19927;-47
2022/04/09 03:07:52;;;;;;;;;;;;;;;17.69;53.04;99593.44;2083845;28;19974;-46
2022/04/09 03:08:53;;;;;;;;;;;;;;;17.69;53.03;99599.75;2080939;28;20270;-49
2022/04/09 03:09:53;;;;;;;;;;;;;;;17.70;53.10;99597.88;2081342;28;19917;-47
2022/04/09 03:10:53;;;;;;;;;;;;;;;17.69;53.12;99602.47;2082785;28;19916;-47
2022/04/09 03:11:54;;;;;;;;;;;;;;;17.69;53.11;99597.03;2085067;28;20150;-47
2022/04/09 03:12:54;;;;;;;;;;;;;;;17.70;53.21;99600.59;2081267;28;19932;-47
2022/04/09 03:13:54;;;;;;;;;;;;;;;17.69;53.18;99596.19;2081053;28;20171;-47
2022/04/09 03:14:54;;;;;;;;;;;;;;;17.69;53.17;99594.31;2083524;28;20524;-46
2022/04/09 03:15:55;;;;;;;;;;;;;;;17.69;53.08;99596.19;2083142;28;19920;-47
2022/04/09 03:16:55;;;;;;;;;;;;;;;17.68;53.04;99586.25;2079850;28;20228;-47
2022/04/09 03:17:55;;;;;;;;;;;;;;;17.68;53.27;99589.84;2081550;28;19920;-46
2022/04/09 03:18:55;;;;;;;;;;;;;;;17.68;53.04;99586.25;2083344;28;19922;-47
2022/04/09 03:19:56;;;;;;;;;;;;;;;17.68;52.99;99587.13;2086178;28;19916;-47
2022/04/09 03:20:56;;;;;;;;;;;;;;;17.68;52.94;99583.53;2077115;28;20532;-46
2022/04/09 03:21:56;;;;;;;;;;;;;;;17.68;53.07;99589.84;2082307;28;19925;-47
2022/04/09 03:22:57;;;;;;;;;;;;;;;17.68;53.04;99586.25;2081904;28;20495;-46
2022/04/09 03:23:57;;;;;;;;;;;;;;;17.68;53.06;99586.25;2082108;28;20794;-47
2022/04/09 03:24:58;;;;;;;;;;;;;;;17.68;53.13;99586.25;2081752;28;19983;-47
2022/04/09 03:25:58;;;;;;;;;;;;;;;17.68;53.05;99580.81;2083154;28;20240;-46
2022/04/09 03:26:58;;;;;;;;;;;;;;;17.68;53.03;99580.81;2084970;28;20143;-46
2022/04/09 03:27:58;;;;;;;;;;;;;;;17.67;53.12;99584.56;2080681;28;20426;-47
2022/04/09 03:28:59;;;;;;;;;;;;;;;17.68;52.94;99589.00;2086028;28;19924;-48
2022/04/09 03:29:59;;;;;;;;;;;;;;;17.68;53.16;99589.84;2082072;28;19921;-46
2022/04/09 03:31:00;;;;;;;;;;;;;;;17.68;53.12;99586.25;2082147;28;19916;-46
2022/04/09 03:32:01;;;;;;;;;;;;;;;17.68;52.93;99592.56;2081003;28;19983;-47
2022/04/09 03:33:01;;;;;;;;;;;;;;;17.68;53.04;99589.00;2082604;28;19959;-46
2022/04/09 03:34:04;;;;;;;;;;;;;;;17.69;52.89;99593.44;2084113;28;19913;-46
2022/04/09 03:35:06;;;;;;;;;;;;;;;17.68;53.02;99592.56;2100005;28;19972;-47
2022/04/09 03:36:06;;;;;;;;;;;;;;;17.68;53.22;99591.72;2088801;28;20070;-48
2022/04/09 03:37:07;;;;;;;;;;;;;;;17.68;52.89;99591.72;2085355;28;19932;-46
2022/04/09 03:38:13;;;;;;;;;;;;;;;17.68;52.95;99591.72;2083128;28;19940;-45
2022/04/09 03:39:14;;;;;;;;;;;;;;;17.68;53.22;99602.63;2084146;28;21358;-46
2022/04/09 03:40:14;;;;;;;;;;;;;;;17.67;53.08;99595.47;2082714;28;20010;-47
2022/04/09 03:41:15;;;;;;;;;;;;;;;17.68;52.94;99592.56;2083752;28;19924;-47
2022/04/09 03:42:16;;;;;;;;;;;;;;;17.68;53.06;99594.44;2080766;28;20878;-46
2022/04/09 03:43:16;;;;;;;;;;;;;;;17.67;53.03;99596.31;2082460;28;19970;-46
2022/04/09 03:44:16;;;;;;;;;;;;;;;17.66;53.07;99594.59;2082285;28;20816;-46
2022/04/09 03:45:16;;;;;;;;;;;;;;;17.66;53.00;99593.72;2084208;28;19921;-46
2022/04/09 03:46:17;;;;;;;;;;;;;;;17.66;53.07;99591.00;2082314;28;19964;-47
2022/04/09 03:47:17;;;;;;;;;;;;;;;17.66;52.96;99593.72;2086257;28;20781;-46
2022/04/09 03:48:17;;;;;;;;;;;;;;;17.66;53.06;99596.47;2079716;28;20320;-47
2022/04/09 03:49:18;;;;;;;;;;;;;;;17.66;52.98;99596.47;2078839;28;19916;-47
2022/04/09 03:50:18;;;;;;;;;;;;;;;17.64;53.06;99595.75;2082671;28;20869;-46
2022/04/09 03:51:18;;;;;;;;;;;;;;;17.63;53.25;99594.03;2081824;28;19917;-46
2022/04/09 03:52:18;;;;;;;;;;;;;;;17.63;53.18;99600.34;2083619;28;20385;-48
2022/04/09 03:53:22;;;;;;;;;;;;;;;17.65;53.30;99600.22;2079639;28;20361;-47
2022/04/09 03:54:22;;;;;;;;;;;;;;;17.63;53.02;99594.03;2081036;28;20306;-47
2022/04/09 03:55:23;;;;;;;;;;;;;;;17.63;53.23;99599.50;2081790;28;19916;-48
2022/04/09 03:56:23;;;;;;;;;;;;;;;17.64;53.09;99601.19;2084450;28;20427;-46
2022/04/09 03:57:23;;;;;;;;;;;;;;;17.63;53.35;99607.66;2083373;28;19962;-48
2022/04/09 03:58:24;;;;;;;;;;;;;;;17.63;53.19;99604.94;2082085;28;20533;-48
2022/04/09 03:59:24;;;;;;;;;;;;;;;17.63;53.20;99604.94;2075399;28;20007;-47
2022/04/09 04:00:25;;;;;;;;;;;;;;;17.64;53.41;99606.66;2082052;28;19923;-47
2022/04/09 04:01:27;;;;;;;;;;;;;;;17.63;53.00;99613.13;2083878;28;20015;-48
2022/04/09 04:02:27;;;;;;;;;;;;;;;17.64;53.13;99606.66;2080855;28;20334;-49
2022/04/09 04:03:28;;;;;;;;;;;;;;;17.63;53.18;99610.41;2079285;28;19916;-48
2022/04/09 04:04:28;;;;;;;;;;;;;;;17.63;53.26;99613.13;2085663;28;20619;-47
2022/04/09 04:05:28;;;;;;;;;;;;;;;17.63;53.01;99604.94;2079324;28;19935;-48
2022/04/09 04:06:29;;;;;;;;;;;;;;;17.63;53.13;99616.69;2084106;28;19921;-48
2022/04/09 04:07:30;;;;;;;;;;;;;;;17.63;53.25;99615.84;2081432;28;19920;-48
2022/04/09 04:08:30;;;;;;;;;;;;;;;17.64;53.32;99614.81;2084221;28;19916;-47
2022/04/09 04:09:30;;;;;;;;;;;;;;;17.62;53.06;99615.00;2079826;28;19909;-47
2022/04/09 04:10:32;;;;;;;;;;;;;;;17.62;53.11;99608.69;2083329;28;20245;-49
2022/04/09 04:11:33;;;;;;;;;;;;;;;17.62;53.25;99622.31;2081357;28;19915;-50
2022/04/09 04:12:33;;;;;;;;;;;;;;;17.62;53.07;99619.59;2081559;28;19923;-47
2022/04/09 04:13:38;;;;;;;;;;;;;;;17.62;53.17;99625.03;2081986;28;19924;-48
2022/04/09 04:14:38;;;;;;;;;;;;;;;17.61;53.30;99631.50;2080231;28;19947;-47
2022/04/09 04:15:40;;;;;;;;;;;;;;;17.61;53.33;99637.78;2082695;28;20134;-47
2022/04/09 04:16:40;;;;;;;;;;;;;;;17.61;53.34;99629.63;2084310;28;19927;-47
2022/04/09 04:17:44;;;;;;;;;;;;;;;17.61;53.33;99634.22;2082309;28;19945;-48
2022/04/09 04:18:44;;;;;;;;;;;;;;;17.61;53.46;99628.75;2085339;28;19920;-48
2022/04/09 04:19:44;;;;;;;;;;;;;;;17.60;53.27;99627.06;2078850;28;20007;-48
2022/04/09 04:20:45;;;;;;;;;;;;;;;17.60;53.18;99630.63;2083294;28;20404;-48
2022/04/09 04:21:45;;;;;;;;;;;;;;;17.61;53.12;99628.75;2079054;28;19999;-47
2022/04/09 04:22:45;;;;;;;;;;;;;;;17.60;53.36;99629.78;2083062;28;19955;-48
2022/04/09 04:23:46;;;;;;;;;;;;;;;17.60;53.21;99629.78;2082626;28;19998;-48
2022/04/09 04:24:46;;;;;;;;;;;;;;;17.58;53.38;99630.78;2080437;28;20336;-48
2022/04/09 04:25:46;;;;;;;;;;;;;;;17.58;53.27;99630.78;2087204;28;19920;-47
2022/04/09 04:26:46;;;;;;;;;;;;;;;17.58;53.40;99628.06;2084696;28;19927;-48
2022/04/09 04:27:48;;;;;;;;;;;;;;;17.60;53.35;99627.06;2084106;28;19978;-48
2022/04/09 04:28:49;;;;;;;;;;;;;;;17.60;53.14;99635.25;2085164;28;19920;-48
2022/04/09 04:29:50;;;;;;;;;;;;;;;17.60;53.31;99632.50;2079320;28;19924;-47
2022/04/09 04:30:50;;;;;;;;;;;;;;;17.58;53.25;99629.94;2086411;28;19920;-48
2022/04/09 04:31:51;;;;;;;;;;;;;;;17.58;53.39;99630.78;2072938;28;20118;-48
2022/04/09 04:32:51;;;;;;;;;;;;;;;17.59;53.29;99637.09;2083298;28;20815;-50
2022/04/09 04:33:51;;;;;;;;;;;;;;;17.58;53.24;99636.22;2094891;28;19959;-47
2022/04/09 04:34:52;;;;;;;;;;;;;;;17.60;53.06;99640.69;2093907;28;20423;-47
2022/04/09 04:35:53;;;;;;;;;;;;;;;17.59;53.22;99642.56;2080152;28;19920;-48
2022/04/09 04:36:53;;;;;;;;;;;;;;;17.59;53.18;99642.56;2082908;28;20178;-48
2022/04/09 04:37:54;;;;;;;;;;;;;;;17.60;53.17;99641.53;2082546;28;20210;-48
2022/04/09 04:38:54;;;;;;;;;;;;;;;17.58;53.30;99641.69;2081637;28;20392;-48
2022/04/09 04:39:54;;;;;;;;;;;;;;;17.58;53.24;99641.69;2081130;28;20540;-48
2022/04/09 04:40:55;;;;;;;;;;;;;;;17.58;53.21;99647.13;2079337;28;19932;-47
2022/04/09 04:41:56;;;;;;;;;;;;;;;17.60;53.22;99644.25;2078169;28;20345;-48
2022/04/09 04:42:56;;;;;;;;;;;;;;;17.58;53.19;99641.69;2086330;28;19955;-48
2022/04/09 04:43:56;;;;;;;;;;;;;;;17.59;53.19;99637.09;2084394;28;19962;-47
2022/04/09 04:44:56;;;;;;;;;;;;;;;17.58;53.27;99636.22;2081705;28;20568;-47
2022/04/09 04:45:57;;;;;;;;;;;;;;;17.60;53.30;99640.69;2083163;28;19920;-48
2022/04/09 04:46:57;;;;;;;;;;;;;;;17.60;53.25;99637.97;2080565;28;19924;-50
2022/04/09 04:47:57;;;;;;;;;;;;;;;17.60;53.43;99638.81;2080398;28;19924;-47
2022/04/09 04:48:57;;;;;;;;;;;;;;;17.60;53.27;99643.41;2083976;28;20581;-49
2022/04/09 04:50:02;;;;;;;;;;;;;;;17.61;53.11;99645.97;2080796;28;19931;-47
2022/04/09 04:51:02;;;;;;;;;;;;;;;17.61;53.28;99643.25;2085134;28;19921;-48
2022/04/09 04:52:03;;;;;;;;;;;;;;;17.62;53.41;99652.31;2078535;28;20234;-48
2022/04/09 04:53:04;;;;;;;;;;;;;;;17.62;53.11;99641.41;2082945;28;19950;-48
2022/04/09 04:54:05;;;;;;;;;;;;;;;17.62;53.29;99644.13;2082991;28;20003;-47
2022/04/09 04:55:06;;;;;;;;;;;;;;;17.61;53.38;99645.13;2082993;28;20205;-47
2022/04/09 04:56:06;;;;;;;;;;;;;;;17.62;53.26;99636.81;2084881;28;20326;-48
2022/04/09 04:57:06;;;;;;;;;;;;;;;17.63;53.19;99643.09;2081846;28;19924;-48
2022/04/09 04:58:07;;;;;;;;;;;;;;;17.61;53.11;99645.97;2082787;28;21141;-48
2022/04/09 04:59:08;;;;;;;;;;;;;;;17.62;53.08;99646.84;2083010;28;20026;-47
2022/04/09 05:00:08;;;;;;;;;;;;;;;17.62;53.07;99647.69;2082025;28;19960;-48
2022/04/09 05:01:09;;;;;;;;;;;;;;;17.62;53.14;99644.97;2084704;28;19997;-48
2022/04/09 05:02:09;;;;;;;;;;;;;;;17.61;53.26;99637.78;2082410;28;19998;-47
2022/04/09 05:03:09;;;;;;;;;;;;;;;17.61;53.22;99645.97;2082914;28;19921;-50
2022/04/09 05:04:10;;;;;;;;;;;;;;;17.61;53.07;99645.97;2079520;28;19921;-48
2022/04/09 05:05:10;;;;;;;;;;;;;;;17.61;53.16;99645.97;2080781;28;20015;-47
2022/04/09 05:06:10;;;;;;;;;;;;;;;17.61;53.09;99645.97;2079081;28;20007;-48
2022/04/09 05:07:10;;;;;;;;;;;;;;;17.62;53.29;99652.31;2082470;28;20397;-48
2022/04/09 05:08:11;;;;;;;;;;;;;;;17.62;53.18;99652.31;2083699;28;20611;-47
2022/04/09 05:09:13;;;;;;;;;;;;;;;17.61;53.35;99650.56;2077850;28;19927;-50
2022/04/09 05:10:15;;;;;;;;;;;;;;;17.61;53.34;99651.41;2081521;28;20002;-47
2022/04/09 05:11:15;;;;;;;;;;;;;;;17.62;53.22;99646.84;2080527;28;20088;-48
2022/04/09 05:12:16;;;;;;;;;;;;;;;17.62;53.07;99653.16;2082119;28;19924;-47
2022/04/09 05:13:16;;;;;;;;;;;;;;;17.63;53.02;99648.56;2083331;28;19981;-45
2022/04/09 05:14:16;;;;;;;;;;;;;;;17.63;53.11;99648.56;2080671;28;19924;-45
2022/04/09 05:15:17;;;;;;;;;;;;;;;17.63;53.08;99643.09;2078979;28;20389;-44
2022/04/09 05:16:17;;;;;;;;;;;;;;;17.63;52.98;99643.09;2083811;28;19971;-46
2022/04/09 05:17:17;;;;;;;;;;;;;;;17.61;53.17;99639.66;2080516;28;20239;-45